Scott City, Indiana
Current Conditions -  °F | °C
As of 5:53 PM on Wednesday 26 Nov 2014 (Local Time) from KHUF Reporting Station
Broken Clouds Broken Clouds  
Wind Chill: 29°   Ceiling: 11000
Heat Index: 33°   Visibility: 10mi
Dew Point: 25°   Wind: 5mph
Humidity: 72%   Direction: 330°NNW
Pressure: 30.06"   Gusts: NA
Location:  39.2094°N, 87.3438°W
Report Text: KHUF 262253Z 33004KT 10SM BKN110 01/M04 A3006 RMK AO2 SLP184 T00061039
Loading
Personal Weather Stations






























Interactive Weather Map New forecast layout! Learn more

10-Day Weather Forecast

Advertisements
Track Severe Weather on mobile